AirNav   Air Wisconsin Up To $57,000 Bonus
 
 1241 users online  

WA46 Daybreak Airport
La Center, Washington, USA

GOING TO LA CENTER?


FAA INFORMATION EFFECTIVE 07 NOVEMBER 2019

Location

FAA Identifier: WA46
Lat/Long: 45-49-49.0000N 122-38-15.0000W
45-49.816667N 122-38.250000W
45.8302778,-122.6375000
(estimated)
Elevation: 25 ft. / 8 m (estimated)
Variation: 19E (1990)
From city: 3 miles SE of LA CENTER, WA
Time zone: UTC -8 (UTC -7 during Daylight Saving Time)
Zip code: 98629

Airport Operations

Airport use: Private use. Permission required prior to landing
Activation date: 05/1989
Control tower: no
ARTCC: SEATTLE CENTER
FSS: SEATTLE FLIGHT SERVICE STATION
Attendance: UNATNDD
Wind indicator: yes
Segmented circle: no

Airport Communications

WX ASOS at SPB (10 nm W): 135.875 (503-543-6401)
WX ASOS at VUO (13 nm S): 135.125 (360-696-1280)
WX ASOS at PDX (15 nm S): PHONE (503) 493-7687
WX ASOS at TTD (20 nm SE): 135.625 (503-492-2887)

Nearby radio navigation aids

VOR radial/distance  VOR name  Freq  Var
BTGr318/5.3BATTLE GROUND VORTAC116.6021E
UBGr006/32.0NEWBERG VOR/DME117.4021E

 
NDB name  Hdg/Dist  Freq  Var  ID
BANKS039/20.935616EPND .--. -. -..
KELSO133/22.625617ELSO .-.. ... ---

Airport Services

Runway Information

Runway 13/31

Dimensions: 2200 x 60 ft. / 671 x 18 m
Surface: turf/dirt
RUNWAY 13  RUNWAY 31
Traffic pattern: rightright
Obstructions: 50 ft. trees, 1000 ft. from runway30 ft. trees, 200 ft. from runway

Airport Ownership and Management from official FAA records

Ownership: Privately-owned
Owner: DEAN D SWANSON
4501 NE 290 ST
LA CENTER, WA 98629
Phone 206-263-3637
Manager: DON SWANSON
4501 NE 290TH ST
LA CENTER, WA 98629
Phone 206-263-3637

Airport Operational Statistics

Aircraft based on the field: 1
Single engine airplanes: 1
    

Additional Remarks

FOR CD CTC PORTLAND APCH AT 503-493-7545.

Instrument Procedures

There are no published instrument procedures at WA46.

Some nearby airports with instrument procedures:

KSPB - Scappoose Industrial Airpark (10 nm W)
KVUO - Pearson Field Airport (13 nm S)
KPDX - Portland International Airport (15 nm S)
KTTD - Portland-Troutdale Airport (20 nm SE)
KKLS - Southwest Washington Regional Airport (20 nm NW)
 
Loc | Ops | Rwys | IFR | FBO | Links
Com | Nav | Svcs | Stats | Notes
Area around WA46 (Daybreak Airport)
 
Road maps at: MapQuest Bing Google
 
Aerial photo
WARNING: Photo may not be current or correct
Aerial photo of WA46 (Daybreak Airport)
Do you have a better or more recent aerial photo of Daybreak Airport that you would like to share? If so, please send us your photo.

 
Sectional chart

 
Airport distance calculator
Flying to Daybreak Airport? Find the distance to fly.

From to WA46

Sunrise and sunset
Times for 19-Nov-2019
 Local
(UTC-8)
 Zulu
(UTC)
Morning civil twilight06:4514:45
Sunrise07:1715:17
Sunset16:3500:35
Evening civil twilight17:0701:07

Current date and time
Zulu (UTC)  19-Nov-2019 13:51:11
Local (UTC-8)  19-Nov-2019 05:51:11
 
METAR
KSPB 
10nm W 
190153Z AUTO 00000KT 6SM BR OVC005 12/12 A2968 RMK AO2 RAE53 CIG 002V007 SLP050 P0003 T01170117
KVUO 
13nm S 
191302Z AUTO 06003KT 3SM RA BR FEW008 OVC050 11/09 A2973 RMK AO2 P0002 T01060094
KPDX 
15nm S 
191253Z 32003KT 4SM RA BR FEW010 SCT016 OVC046 11/09 A2974 RMK AO2 SLP070 P0025 T01110094
KTTD 
19nm SE 
191322Z AUTO 00000KT 3SM RA BR SCT007 SCT017 OVC032 11/09 A2973 RMK AO2 P0011 T01060094
KKLS 
20nm NW 
191335Z AUTO 00000KT 10SM OVC007 09/09 A2975 RMK AO2
TAF
KPDX 
15nm S 
191135Z 1912/2012 20007KT P6SM -SHRA SCT025 OVC050 TEMPO 1915/1917 23005KT 5SM BR BKN022 OVC050 FM191700 27004KT P6SM -SHRA OVC025 FM192100 VRB03KT P6SM SCT025 FM200200 32004KT P6SM SCT040 FM200800 05004KT 5SM BR VCFG BKN030
KTTD 
19nm SE 
191135Z 1912/2012 00000KT P6SM -SHRA SCT018 BKN028 OVC040 TEMPO 1912/1916 5SM -RA BR BKN018 OVC040 FM191700 24005KT P6SM -SHRA OVC018 FM192200 VRB02KT P6SM SCT025 BKN045 FM200100 VRB03KT P6SM SCT070 FM200900 00000KT 5SM BR SCT012 BKN030
NOTAMs
Click for the latest NOTAMs
NOTAMs are issued by the DoD/FAA and will open in a separate window not controlled by AirNav.

 

 
 

Would you like to see your business listed on this page?

 If your business provides an interesting product or service to pilots, flight crews, aircraft, or users of the Daybreak Airport, you should consider listing it here.  To start the listing process, click on the button below
 
Add a business
 

Other Pages about Daybreak Airport

home.attbi.com/...
 
Update a link
 
Copyright © AirNav, LLC. All rights reserved. Privacy Policy  Contact